Terminal Aerodrome Forecast
Issued by NWS

Home | Current Version | Previous Version | Text Only | Print | Product List | Glossary On
Versions: 1 2 3 4 5 6 7 8 9 10 11 12 13 14 15
000
FTAK31 PAJN 221127
TAFAKT
TAF
PAKT 221127Z 2212/2312 16008KT P6SM -SHRA BKN025 OVC040
     FM221800 13012G20KT P6SM -RA OVC025 WS020/14030KT
     FM230400 13019G28KT P6SM -RA SCT012 OVC020 WS015/14040KT
      AMD LTD TO CLD VIS AND WIND 2212/2215=

USA.gov is the U.S. government's official web portal to all federal, state and local government web resources and services.